Taasinge Maersk — OUSX2 — position and weather

sailwx.info

Track history (hours):
 
Tides and Currents Weather Stations Pressure Air Temp Water Temp Dewpoint Dewpoint Depression Visibility Wind Speed Wind Dir Waves Ship Positions

Taasinge Maersk

Last reported at 2014-Jun-29 11:33 UTC. Time now 2014-Jul-23 23:48 UTC.
Position S 04°43' E 011°39'.
Warning: this ship's position is 24 days out of date.

Length 191 m; draft 8.2 m.

Type: Ship. MMSI: 220157000.

Date/timePositionNaut miles runAvg speedWind from/ knotsBaromVisibWave heightAir tempDewpointWater temp
2014-Jun-29 11:33S 04°43' E 011°39'10 9.9
2014-Jun-29 10:33S 04°46' E 011°49'1 1.3
2014-Jun-29 09:30S 04°47' E 011°50'0 0.0
2014-Jun-29 08:33S 04°47' E 011°50'0 0.0
2014-Jun-29 07:33S 04°47' E 011°50'0 0.0
2014-Jun-29 06:30S 04°47' E 011°50'0 0.0
2014-Jun-29 05:33S 04°47' E 011°50'0 0.0
2014-Jun-29 04:30S 04°47' E 011°50'0 0.0
2014-Jun-29 03:33S 04°47' E 011°50'0 0.0
2014-Jun-29 02:30S 04°47' E 011°50'0 0.0
2014-Jun-29 01:27S 04°47' E 011°50'0 0.0
2014-Jun-29 00:24S 04°47' E 011°50'0 0.0
2014-Jun-28 23:30S 04°47' E 011°50'0 0.0
2014-Jun-28 22:33S 04°47' E 011°50'0 0.0
2014-Jun-28 21:33S 04°47' E 011°50'0 0.0
2014-Jun-28 20:33S 04°47' E 011°50'0 0.0
2014-Jun-28 19:30S 04°47' E 011°50'0 0.0
2014-Jun-28 18:30S 04°47' E 011°50'0 0.0
2014-Jun-28 17:30S 04°47' E 011°50'0 0.0
2014-Jun-28 16:30S 04°47' E 011°50'0 0.0
2014-Jun-28 15:30S 04°47' E 011°50'0 0.0
2014-Jun-28 14:30S 04°47' E 011°50'0 0.0
2014-Jun-28 13:27S 04°47' E 011°50'0 0.0
2014-Jun-28 12:24S 04°47' E 011°50'0 0.0
2014-Jun-28 11:30S 04°47' E 011°50'0 0.0
2014-Jun-28 10:30S 04°47' E 011°50'0 0.0
2014-Jun-28 09:30S 04°47' E 011°50'0 0.0
2014-Jun-28 08:30S 04°47' E 011°50'0 0.0
2014-Jun-28 07:30S 04°47' E 011°50'0 0.0
2014-Jun-28 06:30S 04°47' E 011°50'0 0.0
2014-Jun-28 05:30S 04°47' E 011°50'0 0.0
2014-Jun-28 04:30S 04°47' E 011°50'0 0.0
2014-Jun-28 03:30S 04°47' E 011°50'0 0.0
2014-Jun-28 02:33S 04°47' E 011°50'0 0.0
2014-Jun-28 01:30S 04°47' E 011°50'0 0.0
2014-Jun-28 00:33S 04°47' E 011°50'0 0.0
2014-Jun-27 23:30S 04°47' E 011°50'0 0.0
2014-Jun-27 22:30S 04°47' E 011°50'0 0.0
2014-Jun-27 21:30S 04°47' E 011°50'0 0.0
2014-Jun-27 20:33S 04°47' E 011°50'0 0.0
2014-Jun-27 19:30S 04°47' E 011°50'0 0.0
2014-Jun-27 18:30S 04°47' E 011°50'0 0.0
2014-Jun-27 17:27S 04°47' E 011°50'0 0.0
2014-Jun-27 16:30S 04°47' E 011°50'0 0.0
2014-Jun-27 15:24S 04°47' E 011°50'0 0.0
2014-Jun-27 14:30S 04°47' E 011°50'0 0.0
2014-Jun-27 13:30S 04°47' E 011°50'0 0.0
2014-Jun-27 12:24S 04°47' E 011°50'0 0.0
2014-Jun-27 11:24S 04°47' E 011°50'0 0.0
2014-Jun-27 10:33S 04°47' E 011°50'2 2.0
2014-Jun-27 09:33S 04°45' E 011°48'0 0.1
2014-Jun-27 08:33S 04°45' E 011°48'0 0.0
2014-Jun-27 07:33S 04°45' E 011°48'0 0.0
2014-Jun-27 06:32S 04°45' E 011°48'3 2.9
2014-Jun-27 05:33S 04°44' E 011°46'  
Track history (hours):
 
Tides and Currents Weather Stations Pressure Air Temp Water Temp Dewpoint Dewpoint Depression Visibility Wind Speed Wind Dir Waves Ship Positions

Taasinge Maersk

Last reported at 2014-Jun-29 11:33 UTC. Time now 2014-Jul-23 23:48 UTC.
Position S 04°43' E 011°39'.
Warning: this ship's position is 24 days out of date.

Length 191 m; draft 8.2 m.

Type: Ship. MMSI: 220157000.

Date/timePositionNaut miles runAvg speedWind from/ knotsBaromVisibWave heightAir tempDewpointWater temp
2014-Jun-29 11:33S 04°43' E 011°39'10 9.9
2014-Jun-29 10:33S 04°46' E 011°49'1 1.3
2014-Jun-29 09:30S 04°47' E 011°50'0 0.0
2014-Jun-29 08:33S 04°47' E 011°50'0 0.0
2014-Jun-29 07:33S 04°47' E 011°50'0 0.0
2014-Jun-29 06:30S 04°47' E 011°50'0 0.0
2014-Jun-29 05:33S 04°47' E 011°50'0 0.0
2014-Jun-29 04:30S 04°47' E 011°50'0 0.0
2014-Jun-29 03:33S 04°47' E 011°50'0 0.0
2014-Jun-29 02:30S 04°47' E 011°50'0 0.0
2014-Jun-29 01:27S 04°47' E 011°50'0 0.0
2014-Jun-29 00:24S 04°47' E 011°50'0 0.0
2014-Jun-28 23:30S 04°47' E 011°50'0 0.0
2014-Jun-28 22:33S 04°47' E 011°50'0 0.0
2014-Jun-28 21:33S 04°47' E 011°50'0 0.0
2014-Jun-28 20:33S 04°47' E 011°50'0 0.0
2014-Jun-28 19:30S 04°47' E 011°50'0 0.0
2014-Jun-28 18:30S 04°47' E 011°50'0 0.0
2014-Jun-28 17:30S 04°47' E 011°50'0 0.0
2014-Jun-28 16:30S 04°47' E 011°50'0 0.0
2014-Jun-28 15:30S 04°47' E 011°50'0 0.0
2014-Jun-28 14:30S 04°47' E 011°50'0 0.0
2014-Jun-28 13:27S 04°47' E 011°50'0 0.0
2014-Jun-28 12:24S 04°47' E 011°50'0 0.0
2014-Jun-28 11:30S 04°47' E 011°50'0 0.0
2014-Jun-28 10:30S 04°47' E 011°50'0 0.0
2014-Jun-28 09:30S 04°47' E 011°50'0 0.0
2014-Jun-28 08:30S 04°47' E 011°50'0 0.0
2014-Jun-28 07:30S 04°47' E 011°50'0 0.0
2014-Jun-28 06:30S 04°47' E 011°50'0 0.0
2014-Jun-28 05:30S 04°47' E 011°50'0 0.0
2014-Jun-28 04:30S 04°47' E 011°50'0 0.0
2014-Jun-28 03:30S 04°47' E 011°50'0 0.0
2014-Jun-28 02:33S 04°47' E 011°50'0 0.0
2014-Jun-28 01:30S 04°47' E 011°50'0 0.0
2014-Jun-28 00:33S 04°47' E 011°50'0 0.0
2014-Jun-27 23:30S 04°47' E 011°50'0 0.0
2014-Jun-27 22:30S 04°47' E 011°50'0 0.0
2014-Jun-27 21:30S 04°47' E 011°50'0 0.0
2014-Jun-27 20:33S 04°47' E 011°50'0 0.0
2014-Jun-27 19:30S 04°47' E 011°50'0 0.0
2014-Jun-27 18:30S 04°47' E 011°50'0 0.0
2014-Jun-27 17:27S 04°47' E 011°50'0 0.0
2014-Jun-27 16:30S 04°47' E 011°50'0 0.0
2014-Jun-27 15:24S 04°47' E 011°50'0 0.0
2014-Jun-27 14:30S 04°47' E 011°50'0 0.0
2014-Jun-27 13:30S 04°47' E 011°50'0 0.0
2014-Jun-27 12:24S 04°47' E 011°50'0 0.0
2014-Jun-27 11:24S 04°47' E 011°50'0 0.0
2014-Jun-27 10:33S 04°47' E 011°50'2 2.0
2014-Jun-27 09:33S 04°45' E 011°48'0 0.1
2014-Jun-27 08:33S 04°45' E 011°48'0 0.0
2014-Jun-27 07:33S 04°45' E 011°48'0 0.0
2014-Jun-27 06:32S 04°45' E 011°48'3 2.9
2014-Jun-27 05:33S 04°44' E 011°46'  

Dump ship's entire track history